sensor_id;sensor_type;location;lat;lon;timestamp;pressure;altitude;pressure_sealevel;temperature;humidity
22605;BME280;11469;49.024;8.246;2023-04-27T00:01:36;100525.41;;;7.91;93.51
22605;BME280;11469;49.024;8.246;2023-04-27T00:04:02;100524.94;;;7.89;93.59
22605;BME280;11469;49.024;8.246;2023-04-27T00:06:31;100523.72;;;7.78;94.58
22605;BME280;11469;49.024;8.246;2023-04-27T00:08:58;100521.13;;;7.73;95.13
22605;BME280;11469;49.024;8.246;2023-04-27T00:11:24;100522.97;;;7.69;95.67
22605;BME280;11469;49.024;8.246;2023-04-27T00:13:49;100520.84;;;7.65;96.08
22605;BME280;11469;49.024;8.246;2023-04-27T00:16:15;100520.22;;;7.60;96.76
22605;BME280;11469;49.024;8.246;2023-04-27T00:18:40;100506.13;;;7.56;96.93
22605;BME280;11469;49.024;8.246;2023-04-27T00:21:07;100510.31;;;7.50;97.09
22605;BME280;11469;49.024;8.246;2023-04-27T00:23:33;100515.94;;;7.42;97.19
22605;BME280;11469;49.024;8.246;2023-04-27T00:25:58;100504.84;;;7.33;97.56
22605;BME280;11469;49.024;8.246;2023-04-27T00:28:24;100500.06;;;7.33;97.39
22605;BME280;11469;49.024;8.246;2023-04-27T00:30:49;100500.28;;;7.28;97.54
22605;BME280;11469;49.024;8.246;2023-04-27T00:33:18;100501.47;;;7.19;97.08
22605;BME280;11469;49.024;8.246;2023-04-27T00:35:43;100503.63;;;7.13;96.69
22605;BME280;11469;49.024;8.246;2023-04-27T00:38:09;100512.41;;;7.03;97.03
22605;BME280;11469;49.024;8.246;2023-04-27T00:40:35;100503.94;;;6.91;97.57
22605;BME280;11469;49.024;8.246;2023-04-27T00:43:00;100500.50;;;6.85;98.15
22605;BME280;11469;49.024;8.246;2023-04-27T00:45:25;100512.31;;;6.82;98.12
22605;BME280;11469;49.024;8.246;2023-04-27T00:47:51;100504.13;;;6.77;98.34
22605;BME280;11469;49.024;8.246;2023-04-27T00:50:19;100513.97;;;6.75;98.80
22605;BME280;11469;49.024;8.246;2023-04-27T00:52:48;100515.63;;;6.67;99.10
22605;BME280;11469;49.024;8.246;2023-04-27T00:55:13;100502.88;;;6.66;99.20
22605;BME280;11469;49.024;8.246;2023-04-27T00:57:39;100502.59;;;6.59;99.21
22605;BME280;11469;49.024;8.246;2023-04-27T01:00:04;100509.66;;;6.48;100.00
22605;BME280;11469;49.024;8.246;2023-04-27T01:02:31;100519.31;;;6.50;99.98
22605;BME280;11469;49.024;8.246;2023-04-27T01:04:56;100514.06;;;6.49;100.00
22605;BME280;11469;49.024;8.246;2023-04-27T01:07:25;100511.63;;;6.47;100.00
22605;BME280;11469;49.024;8.246;2023-04-27T01:09:51;100510.31;;;6.45;100.00
22605;BME280;11469;49.024;8.246;2023-04-27T01:12:17;100519.31;;;6.50;100.00
22605;BME280;11469;49.024;8.246;2023-04-27T01:14:42;100518.00;;;6.56;98.88
22605;BME280;11469;49.024;8.246;2023-04-27T01:17:07;100510.31;;;6.53;98.13
22605;BME280;11469;49.024;8.246;2023-04-27T01:19:33;100513.34;;;6.69;97.30
22605;BME280;11469;49.024;8.246;2023-04-27T01:21:58;100516.31;;;6.64;96.64
22605;BME280;11469;49.024;8.246;2023-04-27T01:24:24;100516.50;;;6.59;96.42
22605;BME280;11469;49.024;8.246;2023-04-27T01:26:49;100521.44;;;6.53;96.99
22605;BME280;11469;49.024;8.246;2023-04-27T01:29:17;100518.16;;;6.60;97.00
22605;BME280;11469;49.024;8.246;2023-04-27T01:31:42;100525.03;;;6.54;96.97
22605;BME280;11469;49.024;8.246;2023-04-27T01:34:08;100520.94;;;6.51;97.42
22605;BME280;11469;49.024;8.246;2023-04-27T01:36:34;100518.31;;;6.55;97.57
22605;BME280;11469;49.024;8.246;2023-04-27T01:39:00;100531.09;;;6.56;97.29
22605;BME280;11469;49.024;8.246;2023-04-27T01:41:25;100522.09;;;6.50;97.67
22605;BME280;11469;49.024;8.246;2023-04-27T01:43:51;100514.53;;;6.59;97.55
22605;BME280;11469;49.024;8.246;2023-04-27T01:46:16;100523.19;;;6.66;96.27
22605;BME280;11469;49.024;8.246;2023-04-27T01:48:41;100525.16;;;6.66;96.48
22605;BME280;11469;49.024;8.246;2023-04-27T01:51:07;100513.00;;;6.71;95.71
22605;BME280;11469;49.024;8.246;2023-04-27T01:53:33;100524.63;;;6.73;95.78
22605;BME280;11469;49.024;8.246;2023-04-27T01:55:58;100510.72;;;6.73;94.70
22605;BME280;11469;49.024;8.246;2023-04-27T01:58:24;100514.47;;;6.77;95.08
22605;BME280;11469;49.024;8.246;2023-04-27T02:00:50;100517.09;;;6.73;94.77
22605;BME280;11469;49.024;8.246;2023-04-27T02:03:16;100526.91;;;6.79;94.38
22605;BME280;11469;49.024;8.246;2023-04-27T02:05:41;100527.91;;;6.75;94.26
22605;BME280;11469;49.024;8.246;2023-04-27T02:08:07;100518.72;;;6.74;95.00
22605;BME280;11469;49.024;8.246;2023-04-27T02:10:33;100524.94;;;6.80;94.36
22605;BME280;11469;49.024;8.246;2023-04-27T02:12:59;100526.56;;;6.81;93.98
22605;BME280;11469;49.024;8.246;2023-04-27T02:15:24;100524.47;;;6.78;93.22
22605;BME280;11469;49.024;8.246;2023-04-27T02:17:49;100533.63;;;6.78;93.20
22605;BME280;11469;49.024;8.246;2023-04-27T02:20:15;100530.38;;;6.76;93.41
22605;BME280;11469;49.024;8.246;2023-04-27T02:22:41;100525.44;;;6.82;93.06
22605;BME280;11469;49.024;8.246;2023-04-27T02:25:10;100537.72;;;6.81;92.94
22605;BME280;11469;49.024;8.246;2023-04-27T02:27:44;100537.56;;;6.77;93.57
22605;BME280;11469;49.024;8.246;2023-04-27T02:30:11;100536.91;;;6.80;93.88
22605;BME280;11469;49.024;8.246;2023-04-27T02:32:36;100533.44;;;6.83;93.49
22605;BME280;11469;49.024;8.246;2023-04-27T02:35:02;100537.09;;;6.75;94.27
22605;BME280;11469;49.024;8.246;2023-04-27T02:37:28;100539.53;;;6.77;94.60
22605;BME280;11469;49.024;8.246;2023-04-27T02:39:54;100544.63;;;6.75;94.84
22605;BME280;11469;49.024;8.246;2023-04-27T02:42:20;100546.56;;;6.83;94.09
22605;BME280;11469;49.024;8.246;2023-04-27T02:44:45;100544.28;;;6.76;94.40
22605;BME280;11469;49.024;8.246;2023-04-27T02:47:11;100541.00;;;6.74;94.66
22605;BME280;11469;49.024;8.246;2023-04-27T02:49:37;100534.00;;;6.68;94.84
22605;BME280;11469;49.024;8.246;2023-04-27T02:52:02;100536.78;;;6.68;94.61
22605;BME280;11469;49.024;8.246;2023-04-27T02:54:28;100542.84;;;6.70;94.62
22605;BME280;11469;49.024;8.246;2023-04-27T02:56:54;100536.09;;;6.71;94.28
22605;BME280;11469;49.024;8.246;2023-04-27T02:59:21;100545.13;;;6.68;93.55
22605;BME280;11469;49.024;8.246;2023-04-27T03:01:47;100540.03;;;6.70;92.94
22605;BME280;11469;49.024;8.246;2023-04-27T03:04:12;100552.34;;;6.69;93.44
22605;BME280;11469;49.024;8.246;2023-04-27T03:06:41;100547.59;;;6.70;92.88
22605;BME280;11469;49.024;8.246;2023-04-27T03:09:07;100550.22;;;6.66;92.05
22605;BME280;11469;49.024;8.246;2023-04-27T03:11:34;100544.97;;;6.64;91.94
22605;BME280;11469;49.024;8.246;2023-04-27T03:14:00;100541.56;;;6.59;91.49
22605;BME280;11469;49.024;8.246;2023-04-27T03:16:25;100549.28;;;6.53;91.41
22605;BME280;11469;49.024;8.246;2023-04-27T03:18:50;100546.59;;;6.65;90.70
22605;BME280;11469;49.024;8.246;2023-04-27T03:21:16;100547.16;;;6.59;91.81
22605;BME280;11469;49.024;8.246;2023-04-27T03:23:41;100547.31;;;6.54;91.90
22605;BME280;11469;49.024;8.246;2023-04-27T03:26:08;100549.59;;;6.60;91.53
22605;BME280;11469;49.024;8.246;2023-04-27T03:28:33;100544.53;;;6.54;91.97
22605;BME280;11469;49.024;8.246;2023-04-27T03:31:07;100549.44;;;6.57;91.05
22605;BME280;11469;49.024;8.246;2023-04-27T03:33:33;100554.34;;;6.60;91.34
22605;BME280;11469;49.024;8.246;2023-04-27T03:35:59;100550.41;;;6.61;91.10
22605;BME280;11469;49.024;8.246;2023-04-27T03:38:25;100549.28;;;6.53;90.76
22605;BME280;11469;49.024;8.246;2023-04-27T03:40:52;100553.88;;;6.49;90.60
22605;BME280;11469;49.024;8.246;2023-04-27T03:43:18;100553.56;;;6.51;90.74
22605;BME280;11469;49.024;8.246;2023-04-27T03:45:44;100557.81;;;6.48;91.77
22605;BME280;11469;49.024;8.246;2023-04-27T03:48:10;100544.72;;;6.49;91.37
22605;BME280;11469;49.024;8.246;2023-04-27T03:50:35;100552.41;;;6.52;91.36
22605;BME280;11469;49.024;8.246;2023-04-27T03:53:01;100555.19;;;6.52;90.42
22605;BME280;11469;49.024;8.246;2023-04-27T03:55:26;100552.25;;;6.48;90.64
22605;BME280;11469;49.024;8.246;2023-04-27T03:57:52;100554.69;;;6.50;90.57
22605;BME280;11469;49.024;8.246;2023-04-27T04:00:17;100558.78;;;6.52;90.14
22605;BME280;11469;49.024;8.246;2023-04-27T04:02:43;100559.13;;;6.51;90.51
22605;BME280;11469;49.024;8.246;2023-04-27T04:05:09;100561.25;;;6.54;89.73
22605;BME280;11469;49.024;8.246;2023-04-27T04:07:35;100565.50;;;6.60;89.82
22605;BME280;11469;49.024;8.246;2023-04-27T04:10:00;100556.00;;;6.52;90.03
22605;BME280;11469;49.024;8.246;2023-04-27T04:12:26;100566.31;;;6.52;90.23
22605;BME280;11469;49.024;8.246;2023-04-27T04:14:52;100560.44;;;6.53;90.07
22605;BME280;11469;49.024;8.246;2023-04-27T04:17:17;100552.88;;;6.54;90.10
22605;BME280;11469;49.024;8.246;2023-04-27T04:19:42;100560.91;;;6.55;90.10
22605;BME280;11469;49.024;8.246;2023-04-27T04:22:08;100557.81;;;6.57;90.07
22605;BME280;11469;49.024;8.246;2023-04-27T04:24:33;100551.91;;;6.58;89.93
22605;BME280;11469;49.024;8.246;2023-04-27T04:26:58;100552.84;;;6.62;89.23
22605;BME280;11469;49.024;8.246;2023-04-27T04:29:24;100560.22;;;6.67;88.47
22605;BME280;11469;49.024;8.246;2023-04-27T04:31:50;100559.88;;;6.69;88.41
22605;BME280;11469;49.024;8.246;2023-04-27T04:34:15;100561.19;;;6.71;87.29
22605;BME280;11469;49.024;8.246;2023-04-27T04:36:41;100561.00;;;6.76;86.87
22605;BME280;11469;49.024;8.246;2023-04-27T04:39:07;100562.81;;;6.72;87.32
22605;BME280;11469;49.024;8.246;2023-04-27T04:41:32;100567.38;;;6.77;86.84
22605;BME280;11469;49.024;8.246;2023-04-27T04:43:58;100570.19;;;6.77;87.85
22605;BME280;11469;49.024;8.246;2023-04-27T04:46:24;100561.66;;;6.73;87.60
22605;BME280;11469;49.024;8.246;2023-04-27T04:48:50;100558.88;;;6.73;87.87
22605;BME280;11469;49.024;8.246;2023-04-27T04:51:16;100557.72;;;6.74;87.80
22605;BME280;11469;49.024;8.246;2023-04-27T04:53:41;100571.31;;;6.76;87.16
22605;BME280;11469;49.024;8.246;2023-04-27T04:56:15;100577.06;;;6.79;87.65
22605;BME280;11469;49.024;8.246;2023-04-27T04:58:41;100580.81;;;6.83;87.66
22605;BME280;11469;49.024;8.246;2023-04-27T05:01:06;100574.56;;;6.86;86.75
22605;BME280;11469;49.024;8.246;2023-04-27T05:03:32;100575.88;;;6.89;87.05
22605;BME280;11469;49.024;8.246;2023-04-27T05:05:57;100578.31;;;6.99;87.24
22605;BME280;11469;49.024;8.246;2023-04-27T05:08:23;100580.75;;;7.01;86.80
22605;BME280;11469;49.024;8.246;2023-04-27T05:10:49;100578.47;;;7.03;85.62
22605;BME280;11469;49.024;8.246;2023-04-27T05:13:15;100587.78;;;7.07;85.52
22605;BME280;11469;49.024;8.246;2023-04-27T05:15:40;100583.16;;;7.11;85.97
22605;BME280;11469;49.024;8.246;2023-04-27T05:18:06;100588.06;;;7.14;85.65
22605;BME280;11469;49.024;8.246;2023-04-27T05:20:34;100592.78;;;7.22;84.50
22605;BME280;11469;49.024;8.246;2023-04-27T05:23:00;100587.19;;;7.30;84.22
22605;BME280;11469;49.024;8.246;2023-04-27T05:25:25;100593.72;;;7.35;84.47
22605;BME280;11469;49.024;8.246;2023-04-27T05:27:53;100597.34;;;7.35;83.82
22605;BME280;11469;49.024;8.246;2023-04-27T05:30:19;100596.03;;;7.32;81.69
22605;BME280;11469;49.024;8.246;2023-04-27T05:32:44;100598.31;;;7.39;81.90
22605;BME280;11469;49.024;8.246;2023-04-27T05:35:09;100601.72;;;7.45;81.20
22605;BME280;11469;49.024;8.246;2023-04-27T05:37:35;100603.44;;;7.58;80.85
22605;BME280;11469;49.024;8.246;2023-04-27T05:40:00;100608.81;;;7.63;81.04
22605;BME280;11469;49.024;8.246;2023-04-27T05:42:26;100604.88;;;7.64;81.27
22605;BME280;11469;49.024;8.246;2023-04-27T05:44:51;100608.91;;;7.75;79.44
22605;BME280;11469;49.024;8.246;2023-04-27T05:47:17;100603.09;;;7.89;77.33
22605;BME280;11469;49.024;8.246;2023-04-27T05:49:42;100612.41;;;7.93;76.64
22605;BME280;11469;49.024;8.246;2023-04-27T05:52:08;100611.19;;;8.03;75.33
22605;BME280;11469;49.024;8.246;2023-04-27T05:54:33;100615.50;;;8.00;74.10
22605;BME280;11469;49.024;8.246;2023-04-27T05:56:58;100620.63;;;8.10;74.34
22605;BME280;11469;49.024;8.246;2023-04-27T05:59:24;100614.53;;;8.17;73.61
22605;BME280;11469;49.024;8.246;2023-04-27T06:01:49;100619.75;;;8.18;74.05
22605;BME280;11469;49.024;8.246;2023-04-27T06:04:14;100618.25;;;8.21;72.62
22605;BME280;11469;49.024;8.246;2023-04-27T06:06:40;100630.19;;;8.30;72.96
22605;BME280;11469;49.024;8.246;2023-04-27T06:09:05;100623.97;;;8.33;72.68
22605;BME280;11469;49.024;8.246;2023-04-27T06:11:31;100631.31;;;8.38;72.45
22605;BME280;11469;49.024;8.246;2023-04-27T06:13:56;100633.47;;;8.32;73.38
22605;BME280;11469;49.024;8.246;2023-04-27T06:16:22;100633.47;;;8.32;72.95
22605;BME280;11469;49.024;8.246;2023-04-27T06:18:49;100633.63;;;8.36;73.39
22605;BME280;11469;49.024;8.246;2023-04-27T06:21:14;100640.50;;;8.38;73.63
22605;BME280;11469;49.024;8.246;2023-04-27T06:23:40;100628.09;;;8.48;73.60
22605;BME280;11469;49.024;8.246;2023-04-27T06:26:05;100637.66;;;8.47;72.92
22605;BME280;11469;49.024;8.246;2023-04-27T06:28:31;100644.97;;;8.51;72.36
22605;BME280;11469;49.024;8.246;2023-04-27T06:30:56;100641.03;;;8.52;73.06
22605;BME280;11469;49.024;8.246;2023-04-27T06:33:22;100644.09;;;8.59;72.74
22605;BME280;11469;49.024;8.246;2023-04-27T06:35:47;100646.53;;;8.61;72.02
22605;BME280;11469;49.024;8.246;2023-04-27T06:38:12;100637.38;;;8.73;72.18
22605;BME280;11469;49.024;8.246;2023-04-27T06:40:38;100639.13;;;9.10;71.65
22605;BME280;11469;49.024;8.246;2023-04-27T06:43:04;100648.50;;;9.51;70.75
22605;BME280;11469;49.024;8.246;2023-04-27T06:45:29;100651.19;;;9.59;67.77
22605;BME280;11469;49.024;8.246;2023-04-27T06:47:54;100650.00;;;9.48;67.76
22605;BME280;11469;49.024;8.246;2023-04-27T06:50:20;100643.22;;;9.13;68.23
22605;BME280;11469;49.024;8.246;2023-04-27T06:52:45;100649.31;;;9.27;68.55
22605;BME280;11469;49.024;8.246;2023-04-27T06:55:11;100651.03;;;9.19;68.55
22605;BME280;11469;49.024;8.246;2023-04-27T06:57:36;100655.25;;;9.25;69.10
22605;BME280;11469;49.024;8.246;2023-04-27T07:00:02;100665.50;;;9.46;68.72
22605;BME280;11469;49.024;8.246;2023-04-27T07:02:29;100658.28;;;9.57;68.56
22605;BME280;11469;49.024;8.246;2023-04-27T07:04:54;100653.75;;;9.64;68.00
22605;BME280;11469;49.024;8.246;2023-04-27T07:07:20;100652.47;;;9.74;67.62
22605;BME280;11469;49.024;8.246;2023-04-27T07:09:45;100654.94;;;9.76;67.15
22605;BME280;11469;49.024;8.246;2023-04-27T07:12:10;100647.34;;;9.76;67.24
22605;BME280;11469;49.024;8.246;2023-04-27T07:14:36;100649.78;;;9.90;67.12
22605;BME280;11469;49.024;8.246;2023-04-27T07:17:01;100645.56;;;9.96;66.55
22605;BME280;11469;49.024;8.246;2023-04-27T07:19:27;100654.53;;;10.02;66.28
22605;BME280;11469;49.024;8.246;2023-04-27T07:21:52;100648.56;;;10.15;65.90
22605;BME280;11469;49.024;8.246;2023-04-27T07:24:17;100648.47;;;10.24;65.38
22605;BME280;11469;49.024;8.246;2023-04-27T07:26:44;100646.19;;;10.42;65.54
22605;BME280;11469;49.024;8.246;2023-04-27T07:29:09;100655.75;;;10.53;65.89
22605;BME280;11469;49.024;8.246;2023-04-27T07:31:36;100653.06;;;10.84;64.75
22605;BME280;11469;49.024;8.246;2023-04-27T07:34:02;100644.28;;;10.86;66.41
22605;BME280;11469;49.024;8.246;2023-04-27T07:36:27;100639.81;;;11.13;65.99
22605;BME280;11469;49.024;8.246;2023-04-27T07:38:53;100637.13;;;11.32;65.34
22605;BME280;11469;49.024;8.246;2023-04-27T07:41:18;100633.22;;;11.52;63.46
22605;BME280;11469;49.024;8.246;2023-04-27T07:43:44;100631.22;;;11.69;62.21
22605;BME280;11469;49.024;8.246;2023-04-27T07:46:10;100633.13;;;11.64;61.37
22605;BME280;11469;49.024;8.246;2023-04-27T07:48:35;100631.03;;;11.61;61.64
22605;BME280;11469;49.024;8.246;2023-04-27T07:51:01;100631.94;;;11.50;62.07
22605;BME280;11469;49.024;8.246;2023-04-27T07:53:26;100624.28;;;11.31;62.82
22605;BME280;11469;49.024;8.246;2023-04-27T07:55:52;100632.94;;;11.42;62.31
22605;BME280;11469;49.024;8.246;2023-04-27T07:58:18;100624.78;;;11.52;62.89
22605;BME280;11469;49.024;8.246;2023-04-27T08:00:44;100632.50;;;11.55;62.30
22605;BME280;11469;49.024;8.246;2023-04-27T08:03:10;100630.34;;;11.80;62.91
22605;BME280;11469;49.024;8.246;2023-04-27T08:05:35;100632.84;;;11.85;63.49
22605;BME280;11469;49.024;8.246;2023-04-27T08:08:01;100626.72;;;12.15;61.61
22605;BME280;11469;49.024;8.246;2023-04-27T08:10:26;100622.59;;;12.47;62.94
22605;BME280;11469;49.024;8.246;2023-04-27T08:12:52;100625.47;;;12.32;61.20
22605;BME280;11469;49.024;8.246;2023-04-27T08:15:17;100620.38;;;12.37;62.35
22605;BME280;11469;49.024;8.246;2023-04-27T08:17:43;100624.16;;;12.25;61.53
22605;BME280;11469;49.024;8.246;2023-04-27T08:20:09;100625.63;;;12.19;59.35
22605;BME280;11469;49.024;8.246;2023-04-27T08:22:39;100629.41;;;12.27;59.35
22605;BME280;11469;49.024;8.246;2023-04-27T08:25:05;100620.53;;;12.44;59.34
22605;BME280;11469;49.024;8.246;2023-04-27T08:27:31;100617.66;;;12.60;59.70
22605;BME280;11469;49.024;8.246;2023-04-27T08:29:57;100620.06;;;12.81;59.43
22605;BME280;11469;49.024;8.246;2023-04-27T08:32:25;100624.03;;;12.99;58.95
22605;BME280;11469;49.024;8.246;2023-04-27T08:34:50;100622.78;;;12.96;58.79
22605;BME280;11469;49.024;8.246;2023-04-27T08:37:16;100619.16;;;12.96;59.49
22605;BME280;11469;49.024;8.246;2023-04-27T08:39:42;100606.19;;;12.69;60.54
22605;BME280;11469;49.024;8.246;2023-04-27T08:42:12;100617.34;;;12.46;60.27
22605;BME280;11469;49.024;8.246;2023-04-27T08:44:39;100612.72;;;12.76;60.19
22605;BME280;11469;49.024;8.246;2023-04-27T08:47:04;100610.50;;;12.85;59.17
22605;BME280;11469;49.024;8.246;2023-04-27T08:49:30;100609.66;;;12.43;60.43
22605;BME280;11469;49.024;8.246;2023-04-27T08:51:55;100612.38;;;12.78;59.65
22605;BME280;11469;49.024;8.246;2023-04-27T08:54:21;100620.03;;;13.19;60.26
22605;BME280;11469;49.024;8.246;2023-04-27T08:56:46;100608.13;;;13.29;58.64
22605;BME280;11469;49.024;8.246;2023-04-27T08:59:13;100609.56;;;13.43;57.86
22605;BME280;11469;49.024;8.246;2023-04-27T09:01:45;100620.34;;;13.60;58.58
22605;BME280;11469;49.024;8.246;2023-04-27T09:04:12;100613.13;;;13.63;58.33
22605;BME280;11469;49.024;8.246;2023-04-27T09:06:38;100619.97;;;13.61;58.13
22605;BME280;11469;49.024;8.246;2023-04-27T09:09:04;100614.53;;;13.76;58.16
22605;BME280;11469;49.024;8.246;2023-04-27T09:11:35;100614.69;;;13.60;58.47
22605;BME280;11469;49.024;8.246;2023-04-27T09:14:15;100619.47;;;13.56;57.74
22605;BME280;11469;49.024;8.246;2023-04-27T09:16:41;100617.97;;;13.62;58.00
22605;BME280;11469;49.024;8.246;2023-04-27T09:19:07;100618.44;;;13.68;58.31
22605;BME280;11469;49.024;8.246;2023-04-27T09:21:32;100611.56;;;13.65;58.27
22605;BME280;11469;49.024;8.246;2023-04-27T09:24:09;100609.44;;;13.85;58.66
22605;BME280;11469;49.024;8.246;2023-04-27T09:26:36;100612.28;;;13.85;57.35
22605;BME280;11469;49.024;8.246;2023-04-27T09:29:01;100617.97;;;13.39;58.77
22605;BME280;11469;49.024;8.246;2023-04-27T09:31:31;100616.47;;;13.72;58.87
22605;BME280;11469;49.024;8.246;2023-04-27T09:33:57;100610.31;;;13.89;58.06
22605;BME280;11469;49.024;8.246;2023-04-27T09:36:23;100609.78;;;13.80;57.98
22605;BME280;11469;49.024;8.246;2023-04-27T09:38:50;100612.47;;;13.73;58.00
22605;BME280;11469;49.024;8.246;2023-04-27T09:41:17;100611.41;;;13.81;57.32
22605;BME280;11469;49.024;8.246;2023-04-27T09:43:43;100604.59;;;14.08;56.64
22605;BME280;11469;49.024;8.246;2023-04-27T09:46:11;100604.78;;;13.96;55.83
22605;BME280;11469;49.024;8.246;2023-04-27T09:48:37;100602.75;;;14.23;56.82
22605;BME280;11469;49.024;8.246;2023-04-27T09:51:03;100595.09;;;14.50;57.04
22605;BME280;11469;49.024;8.246;2023-04-27T09:53:34;100593.19;;;14.57;55.85
22605;BME280;11469;49.024;8.246;2023-04-27T09:56:05;100593.66;;;14.63;55.45
22605;BME280;11469;49.024;8.246;2023-04-27T10:03:42;100597.28;;;15.01;53.38
22605;BME280;11469;49.024;8.246;2023-04-27T10:09:12;100585.84;;;15.27;53.79
22605;BME280;11469;49.024;8.246;2023-04-27T10:11:38;100590.22;;;15.21;51.29
22605;BME280;11469;49.024;8.246;2023-04-27T10:14:17;100583.50;;;15.36;51.59
22605;BME280;11469;49.024;8.246;2023-04-27T10:16:44;100582.09;;;15.56;52.21
22605;BME280;11469;49.024;8.246;2023-04-27T10:19:11;100581.41;;;15.74;51.06
22605;BME280;11469;49.024;8.246;2023-04-27T10:21:53;100588.03;;;15.96;50.47
22605;BME280;11469;49.024;8.246;2023-04-27T10:24:30;100587.16;;;15.84;49.45
22605;BME280;11469;49.024;8.246;2023-04-27T10:27:00;100579.50;;;15.88;50.62
22605;BME280;11469;49.024;8.246;2023-04-27T10:29:34;100575.44;;;15.86;48.27
22605;BME280;11469;49.024;8.246;2023-04-27T10:32:05;100570.44;;;16.27;49.35
22605;BME280;11469;49.024;8.246;2023-04-27T10:34:33;100573.78;;;16.50;47.72
22605;BME280;11469;49.024;8.246;2023-04-27T10:37:08;100577.50;;;16.69;47.85
22605;BME280;11469;49.024;8.246;2023-04-27T10:39:38;100570.69;;;16.87;47.73
22605;BME280;11469;49.024;8.246;2023-04-27T10:42:05;100572.31;;;17.03;46.56
22605;BME280;11469;49.024;8.246;2023-04-27T10:44:33;100567.88;;;16.91;47.15
22605;BME280;11469;49.024;8.246;2023-04-27T10:47:01;100567.88;;;16.95;46.52
22605;BME280;11469;49.024;8.246;2023-04-27T10:49:29;100568.69;;;17.06;47.52
22605;BME280;11469;49.024;8.246;2023-04-27T10:51:58;100568.28;;;17.11;46.63
22605;BME280;11469;49.024;8.246;2023-04-27T10:54:28;100562.25;;;17.30;44.65
22605;BME280;11469;49.024;8.246;2023-04-27T10:57:00;100553.75;;;17.48;44.90
22605;BME280;11469;49.024;8.246;2023-04-27T10:59:26;100552.53;;;17.63;44.84
22605;BME280;11469;49.024;8.246;2023-04-27T11:01:51;100559.44;;;17.73;44.79
22605;BME280;11469;49.024;8.246;2023-04-27T11:04:17;100560.22;;;17.34;42.82
22605;BME280;11469;49.024;8.246;2023-04-27T11:06:43;100559.81;;;17.18;43.32
22605;BME280;11469;49.024;8.246;2023-04-27T11:09:12;100564.28;;;17.26;45.57
22605;BME280;11469;49.024;8.246;2023-04-27T11:11:42;100557.41;;;17.38;43.36
22605;BME280;11469;49.024;8.246;2023-04-27T11:14:08;100550.47;;;17.07;44.13
22605;BME280;11469;49.024;8.246;2023-04-27T11:16:33;100553.34;;;17.21;42.81
22605;BME280;11469;49.024;8.246;2023-04-27T11:19:05;100549.69;;;17.28;44.11
22605;BME280;11469;49.024;8.246;2023-04-27T11:21:31;100540.00;;;17.39;43.37
22605;BME280;11469;49.024;8.246;2023-04-27T11:24:03;100542.81;;;17.57;44.66
22605;BME280;11469;49.024;8.246;2023-04-27T11:26:28;100537.97;;;17.75;44.12
22605;BME280;11469;49.024;8.246;2023-04-27T11:29:01;100534.66;;;18.02;43.51
22605;BME280;11469;49.024;8.246;2023-04-27T11:31:47;100531.41;;;18.07;44.34
22605;BME280;11469;49.024;8.246;2023-04-27T11:34:31;100522.16;;;17.85;43.94
22605;BME280;11469;49.024;8.246;2023-04-27T11:37:04;100519.72;;;17.87;42.20
22605;BME280;11469;49.024;8.246;2023-04-27T11:39:38;100514.44;;;17.93;44.90
22605;BME280;11469;49.024;8.246;2023-04-27T11:42:18;100513.53;;;18.24;44.48
22605;BME280;11469;49.024;8.246;2023-04-27T11:44:55;100511.16;;;18.05;42.76
22605;BME280;11469;49.024;8.246;2023-04-27T11:47:21;100509.88;;;18.23;42.96
22605;BME280;11469;49.024;8.246;2023-04-27T11:49:47;100514.66;;;18.41;43.87
22605;BME280;11469;49.024;8.246;2023-04-27T11:52:13;100516.19;;;18.60;42.07
22605;BME280;11469;49.024;8.246;2023-04-27T11:54:46;100510.53;;;18.56;42.47
22605;BME280;11469;49.024;8.246;2023-04-27T11:57:11;100515.78;;;18.61;42.97
22605;BME280;11469;49.024;8.246;2023-04-27T11:59:37;100509.28;;;18.64;42.36
22605;BME280;11469;49.024;8.246;2023-04-27T12:02:03;100502.03;;;18.52;41.94
22605;BME280;11469;49.024;8.246;2023-04-27T12:04:28;100506.97;;;18.41;41.30
22605;BME280;11469;49.024;8.246;2023-04-27T12:06:54;100497.28;;;18.28;43.76
22605;BME280;11469;49.024;8.246;2023-04-27T12:09:20;100495.81;;;17.95;42.66
22605;BME280;11469;49.024;8.246;2023-04-27T12:11:46;100503.38;;;18.27;41.99
22605;BME280;11469;49.024;8.246;2023-04-27T12:14:12;100503.78;;;18.29;42.40
22605;BME280;11469;49.024;8.246;2023-04-27T12:16:37;100494.75;;;18.44;43.14
22605;BME280;11469;49.024;8.246;2023-04-27T12:19:03;100492.47;;;18.14;41.78
22605;BME280;11469;49.024;8.246;2023-04-27T12:21:29;100494.13;;;18.12;41.98
22605;BME280;11469;49.024;8.246;2023-04-27T12:23:56;100495.94;;;18.54;42.84
22605;BME280;11469;49.024;8.246;2023-04-27T12:26:21;100482.44;;;18.79;41.60
22605;BME280;11469;49.024;8.246;2023-04-27T12:28:47;100485.47;;;19.06;42.31
22605;BME280;11469;49.024;8.246;2023-04-27T12:31:15;100484.44;;;19.34;40.94
22605;BME280;11469;49.024;8.246;2023-04-27T12:33:42;100482.69;;;19.44;40.15
22605;BME280;11469;49.024;8.246;2023-04-27T12:36:08;100483.06;;;19.49;40.77
22605;BME280;11469;49.024;8.246;2023-04-27T12:38:33;100477.06;;;19.40;40.50
22605;BME280;11469;49.024;8.246;2023-04-27T12:41:00;100479.84;;;19.44;40.27
22605;BME280;11469;49.024;8.246;2023-04-27T12:43:26;100481.06;;;19.46;39.26
22605;BME280;11469;49.024;8.246;2023-04-27T12:45:52;100486.00;;;19.39;40.55
22605;BME280;11469;49.024;8.246;2023-04-27T12:48:17;100483.13;;;18.21;41.88
22605;BME280;11469;49.024;8.246;2023-04-27T12:50:43;100473.81;;;18.20;42.23
22605;BME280;11469;49.024;8.246;2023-04-27T12:53:08;100474.69;;;18.03;41.89
22605;BME280;11469;49.024;8.246;2023-04-27T12:55:34;100472.16;;;18.30;43.09
22605;BME280;11469;49.024;8.246;2023-04-27T12:58:01;100481.38;;;18.45;41.76
22605;BME280;11469;49.024;8.246;2023-04-27T13:00:27;100474.78;;;18.69;42.39